Time;durP1;ratioP1;P1;durP2;ratioP2;P2;SDS_P1;SDS_P2;PMS_P1;PMS_P2;Temp;Humidity;BMP_temperature;BMP_pressure;BME280_temperature;BME280_humidity;BME280_pressure;Samples;Min_cycle;Max_cycle;Signal;HPM_P1;HPM_P2
2022/10/22 00:02:06;;;;;;;0.40;0.40;;;;;;;9.03;79.52;99868.91;5073556;28;20206;-62
2022/10/22 00:04:33;;;;;;;0.20;0.20;;;;;;;9.04;79.92;99864.63;5073541;28;20219;-63
2022/10/22 00:06:59;;;;;;;0.87;0.67;;;;;;;9.03;79.56;99860.44;5073617;28;20242;-61
2022/10/22 00:09:27;;;;;;;2.43;0.60;;;;;;;9.00;79.89;99858.84;5073350;28;20209;-56
2022/10/22 00:11:53;;;;;;;1.03;1.00;;;;;;;9.06;79.73;99857.72;5073202;28;20221;-57
2022/10/22 00:14:22;;;;;;;0.90;0.87;;;;;;;9.05;79.33;99856.06;5073071;28;20194;-62
2022/10/22 00:16:48;;;;;;;0.97;0.83;;;;;;;9.00;79.91;99852.94;5073089;28;20199;-57
2022/10/22 00:19:15;;;;;;;1.30;0.60;;;;;;;8.99;79.82;99846.19;5072924;28;20584;-56
2022/10/22 00:21:42;;;;;;;0.60;0.60;;;;;;;8.98;79.77;99849.63;5073122;28;20218;-62
2022/10/22 00:24:09;;;;;;;0.37;0.37;;;;;;;8.92;79.97;99850.78;5072903;28;20190;-57
2022/10/22 00:26:36;;;;;;;3.37;0.97;;;;;;;8.94;79.98;99848.97;5073020;28;20226;-62
2022/10/22 00:29:03;;;;;;;0.57;0.57;;;;;;;8.98;79.54;99847.09;5072601;28;20198;-56
2022/10/22 00:31:31;;;;;;;0.90;0.90;;;;;;;8.99;79.49;99843.66;5073019;28;20222;-57
2022/10/22 00:33:58;;;;;;;0.10;0.10;;;;;;;8.96;80.00;99841.25;5072502;28;20553;-62
2022/10/22 00:36:24;;;;;;;0.93;0.47;;;;;;;8.89;80.31;99839.94;5072880;28;20236;-62
2022/10/22 00:38:51;;;;;;;0.77;0.77;;;;;;;8.82;80.53;99845.34;5072525;28;20199;-57
2022/10/22 00:41:18;;;;;;;0.33;0.33;;;;;;;8.81;80.57;99846.28;5072617;28;20222;-62
2022/10/22 00:43:57;;;;;;;0.93;0.40;;;;;;;8.79;80.64;99850.63;5072416;28;20201;-56
2022/10/22 00:46:24;;;;;;;0.77;0.50;;;;;;;8.81;80.72;99856.47;5072969;28;20617;-57
2022/10/22 00:48:54;;;;;;;1.00;1.00;;;;;;;8.81;80.55;99859.03;5072564;28;20199;-62
2022/10/22 00:51:24;;;;;;;0.87;0.60;;;;;;;8.79;80.52;99850.63;5072488;28;20219;-57
2022/10/22 00:53:54;;;;;;;0.60;0.60;;;;;;;8.80;80.28;99852.25;5072819;28;20187;-57
2022/10/22 00:56:22;;;;;;;0.30;0.30;;;;;;;8.79;80.46;99845.53;5072302;28;20226;-62
2022/10/22 00:58:52;;;;;;;0.40;0.40;;;;;;;8.74;80.38;99844.94;5072264;28;20190;-56
2022/10/22 01:01:23;;;;;;;0.80;0.80;;;;;;;8.72;80.16;99846.72;5072672;28;20223;-62
2022/10/22 01:03:52;;;;;;;0.50;0.47;;;;;;;8.72;80.35;99851.84;5072299;28;20191;-56
2022/10/22 01:06:23;;;;;;;0.20;0.20;;;;;;;8.71;80.45;99841.72;5071846;28;20249;-57
2022/10/22 01:08:58;;;;;;;1.00;0.70;;;;;;;8.68;80.61;99832.50;5072393;28;20187;-62
2022/10/22 01:11:32;;;;;;;1.03;1.03;;;;;;;8.64;81.10;99825.09;5072085;28;20230;-62
2022/10/22 01:14:06;;;;;;;0.70;0.70;;;;;;;8.60;81.33;99824.44;5071886;28;20198;-56
2022/10/22 01:16:37;;;;;;;0.30;0.30;;;;;;;8.56;81.91;99822.97;5072026;28;20416;-62
2022/10/22 01:19:21;;;;;;;0.93;0.87;;;;;;;8.46;82.68;99817.50;5072276;28;20198;-57
2022/10/22 01:21:56;;;;;;;0.53;0.53;;;;;;;8.36;83.00;99813.75;5071953;28;20199;-57
2022/10/22 01:24:39;;;;;;;1.23;0.60;;;;;;;8.28;83.56;99814.16;5071546;28;20202;-57
2022/10/22 01:27:20;;;;;;;0.70;0.50;;;;;;;8.25;84.23;99811.75;5072005;28;20223;-56
2022/10/22 01:29:52;;;;;;;0.30;0.30;;;;;;;8.19;84.82;99808.72;5071887;28;20222;-62
2022/10/22 01:32:22;;;;;;;1.40;0.93;;;;;;;8.19;84.66;99804.44;5072199;28;20213;-57
2022/10/22 01:34:52;;;;;;;0.83;0.83;;;;;;;8.18;84.45;99807.88;5071621;28;20222;-57
2022/10/22 01:37:23;;;;;;;0.80;0.80;;;;;;;8.20;84.11;99800.97;5071782;28;20206;-62
2022/10/22 01:39:51;;;;;;;0.63;0.60;;;;;;;8.24;84.14;99797.38;5071718;28;20215;-57
2022/10/22 01:42:18;;;;;;;1.23;0.90;;;;;;;8.26;83.81;99800.69;5071602;28;20205;-56
2022/10/22 01:44:47;;;;;;;0.70;0.70;;;;;;;8.28;83.77;99798.03;5071466;28;20218;-62
2022/10/22 01:47:41;;;;;;;0.80;0.80;;;;;;;8.30;83.64;99791.97;5071875;28;20251;-62
2022/10/22 01:50:28;;;;;;;0.90;0.90;;;;;;;8.31;83.42;99788.50;5071097;28;20222;-57
2022/10/22 01:53:16;;;;;;;0.43;0.43;;;;;;;8.33;83.32;99786.72;5071527;28;20206;-56
2022/10/22 01:55:53;;;;;;;0.60;0.60;;;;;;;8.32;83.19;99780.00;5071041;28;20223;-62
2022/10/22 01:58:26;;;;;;;0.77;0.63;;;;;;;8.33;83.29;99771.44;5071379;28;20195;-56
2022/10/22 02:00:59;;;;;;;0.77;0.77;;;;;;;8.38;83.21;99774.59;5071065;28;20226;-62
2022/10/22 02:03:34;;;;;;;0.70;0.70;;;;;;;8.45;82.86;99779.38;5071450;28;20199;-57
2022/10/22 02:06:07;;;;;;;0.97;0.97;;;;;;;8.47;82.96;99778.41;5070433;28;20222;-56
2022/10/22 02:08:37;;;;;;;0.50;0.50;;;;;;;8.53;82.81;99782.34;5071175;28;20211;-57
2022/10/22 02:11:05;;;;;;;1.13;1.03;;;;;;;8.53;82.67;99787.44;5070793;28;20643;-62
2022/10/22 02:13:37;;;;;;;0.30;0.30;;;;;;;8.60;82.27;99783.66;5071067;28;20202;-62
2022/10/22 02:16:07;;;;;;;0.60;0.60;;;;;;;8.67;82.05;99779.91;5070786;28;20628;-61
2022/10/22 02:18:38;;;;;;;0.73;0.73;;;;;;;8.58;82.14;99788.00;5071262;28;20207;-62
2022/10/22 02:21:07;;;;;;;2.43;1.13;;;;;;;8.58;82.32;99785.47;5070675;28;20237;-56
2022/10/22 02:23:34;;;;;;;1.20;0.47;;;;;;;8.57;82.08;99781.28;5071033;28;20613;-60
2022/10/22 02:26:06;;;;;;;1.47;1.13;;;;;;;8.55;82.33;99780.53;5070968;28;20214;-61
2022/10/22 02:28:39;;;;;;;0.73;0.73;;;;;;;8.49;82.59;99784.22;5071204;28;20248;-62
2022/10/22 02:31:13;;;;;;;0.47;0.47;;;;;;;8.44;82.79;99786.19;5070874;28;20577;-56
2022/10/22 02:33:45;;;;;;;0.30;0.30;;;;;;;8.46;82.93;99786.09;5070642;28;20568;-62
2022/10/22 02:36:13;;;;;;;0.57;0.57;;;;;;;8.46;82.78;99778.47;5070660;28;20698;-62
2022/10/22 02:38:42;;;;;;;0.40;0.40;;;;;;;8.49;82.94;99770.66;5070586;28;20591;-62
2022/10/22 02:41:08;;;;;;;1.23;0.83;;;;;;;8.46;82.86;99765.72;5070665;28;20729;-56
2022/10/22 02:43:41;;;;;;;1.07;1.07;;;;;;;8.46;83.02;99765.72;5070437;28;20203;-61
2022/10/22 02:46:08;;;;;;;0.80;0.80;;;;;;;8.35;83.18;99764.53;5070267;28;20300;-62
2022/10/22 02:48:35;;;;;;;0.50;0.50;;;;;;;8.31;83.37;99767.31;5070445;28;20214;-57
2022/10/22 02:51:04;;;;;;;0.63;0.50;;;;;;;8.28;83.38;99758.09;5070153;28;20594;-56
2022/10/22 02:53:30;;;;;;;1.17;0.67;;;;;;;8.24;83.36;99759.19;5070243;28;20206;-56
2022/10/22 02:55:59;;;;;;;1.43;0.93;;;;;;;8.15;83.41;99757.09;5069818;28;20233;-62
2022/10/22 02:58:25;;;;;;;0.50;0.50;;;;;;;8.07;83.75;99751.56;5070135;28;20206;-62
2022/10/22 03:00:52;;;;;;;0.20;0.20;;;;;;;7.98;84.19;99757.16;5069846;28;20221;-57
2022/10/22 03:03:19;;;;;;;1.50;1.40;;;;;;;7.96;84.31;99751.28;5070131;28;20214;-62
2022/10/22 03:05:46;;;;;;;0.57;0.57;;;;;;;7.94;84.51;99749.66;5069745;28;20226;-56
2022/10/22 03:08:14;;;;;;;0.93;0.50;;;;;;;7.93;84.92;99747.19;5070252;28;20234;-62
2022/10/22 03:10:41;;;;;;;2.30;1.07;;;;;;;7.91;85.56;99746.44;5069926;28;20585;-56
2022/10/22 03:13:08;;;;;;;0.67;0.67;;;;;;;8.06;85.30;99742.31;5070132;28;20199;-62
2022/10/22 03:15:34;;;;;;;1.10;0.60;;;;;;;8.06;85.10;99742.31;5069836;28;20597;-56
2022/10/22 03:18:01;;;;;;;1.43;1.33;;;;;;;8.10;85.15;99736.97;5069001;28;20217;-56
2022/10/22 03:20:28;;;;;;;0.83;0.80;;;;;;;8.06;85.24;99737.22;5069480;28;20218;-62
2022/10/22 03:22:56;;;;;;;0.67;0.67;;;;;;;8.06;85.30;99734.66;5069943;28;20214;-62
2022/10/22 03:25:26;;;;;;;1.00;0.90;;;;;;;8.05;85.73;99740.63;5069773;28;20600;-61
2022/10/22 03:27:55;;;;;;;0.63;0.63;;;;;;;8.04;85.65;99749.19;5069707;28;20729;-61
2022/10/22 03:30:22;;;;;;;1.00;0.50;;;;;;;8.02;85.68;99744.16;5069537;28;20218;-57
2022/10/22 03:32:49;;;;;;;1.40;0.73;;;;;;;8.04;85.70;99746.66;5069871;28;20205;-62
2022/10/22 03:35:16;;;;;;;0.50;0.50;;;;;;;8.05;85.68;99748.28;5069698;28;20227;-56
2022/10/22 03:37:43;;;;;;;0.80;0.80;;;;;;;8.07;85.82;99754.13;5070309;28;20206;-57
2022/10/22 03:40:11;;;;;;;1.60;1.30;;;;;;;8.06;85.81;99743.13;5069526;28;20222;-56
2022/10/22 03:42:40;;;;;;;0.77;0.60;;;;;;;8.07;85.80;99749.03;5069795;28;20206;-62
2022/10/22 03:45:08;;;;;;;0.60;0.60;;;;;;;8.06;85.80;99743.13;5069858;28;20222;-57
2022/10/22 03:47:35;;;;;;;0.87;0.77;;;;;;;8.05;86.14;99738.09;5069891;28;20619;-62
2022/10/22 03:50:02;;;;;;;0.63;0.63;;;;;;;8.03;85.77;99738.19;5069581;28;20222;-61
2022/10/22 03:52:35;;;;;;;0.77;0.77;;;;;;;8.04;86.03;99739.81;5069535;28;20213;-62
2022/10/22 03:55:01;;;;;;;0.73;0.70;;;;;;;8.04;86.08;99749.19;5069491;28;20222;-56
2022/10/22 03:57:28;;;;;;;2.53;1.57;;;;;;;8.04;85.96;99744.09;5069853;28;20206;-62
2022/10/22 03:59:56;;;;;;;1.00;0.90;;;;;;;8.01;86.33;99749.34;5069503;28;20434;-56
2022/10/22 04:02:23;;;;;;;0.93;0.93;;;;;;;7.95;86.67;99755.56;5069568;28;20602;-56
2022/10/22 04:04:50;;;;;;;0.83;0.83;;;;;;;8.00;86.82;99747.69;5069625;28;20305;-56
2022/10/22 04:07:17;;;;;;;0.90;0.90;;;;;;;8.06;86.62;99757.59;5069311;28;20237;-62
2022/10/22 04:09:44;;;;;;;0.83;0.83;;;;;;;8.14;86.34;99746.09;5068937;28;20272;-61
2022/10/22 04:12:10;;;;;;;0.40;0.40;;;;;;;8.19;86.02;99748.41;5069313;28;20202;-56
2022/10/22 04:14:37;;;;;;;0.33;0.33;;;;;;;8.21;85.88;99743.22;5069513;28;20600;-56
2022/10/22 04:17:05;;;;;;;0.67;0.67;;;;;;;8.23;85.61;99744.81;5069463;28;20207;-56
2022/10/22 04:19:33;;;;;;;0.77;0.70;;;;;;;8.26;85.45;99739.53;5069534;28;20218;-56
2022/10/22 04:22:00;;;;;;;0.80;0.80;;;;;;;8.29;85.14;99739.38;5069281;28;20207;-62
2022/10/22 04:24:28;;;;;;;0.63;0.53;;;;;;;8.34;85.15;99747.59;5069097;28;20199;-61
2022/10/22 04:26:55;;;;;;;0.60;0.50;;;;;;;8.34;85.03;99751.88;5069078;28;20293;-62
2022/10/22 04:29:22;;;;;;;2.33;0.93;;;;;;;8.41;84.95;99754.94;5071762;28;20662;-57
2022/10/22 04:31:49;;;;;;;1.60;1.03;;;;;;;8.47;84.98;99758.00;5073192;28;20199;-57
2022/10/22 04:34:17;;;;;;;0.50;0.50;;;;;;;8.45;84.80;99753.91;5072718;28;20191;-57
2022/10/22 04:36:44;;;;;;;0.50;0.50;;;;;;;8.47;84.67;99752.91;5073113;28;20203;-62
2022/10/22 04:39:11;;;;;;;0.97;0.73;;;;;;;8.52;84.29;99758.59;5072719;28;20198;-57
2022/10/22 04:41:39;;;;;;;0.60;0.60;;;;;;;8.61;84.00;99764.94;5072828;28;20693;-62
2022/10/22 04:44:06;;;;;;;0.70;0.70;;;;;;;8.64;84.16;99753.72;5072612;28;20205;-56
2022/10/22 04:46:35;;;;;;;0.80;0.80;;;;;;;8.71;83.73;99757.59;5072614;28;20215;-62
2022/10/22 04:49:03;;;;;;;0.60;0.60;;;;;;;8.75;83.35;99762.44;5072390;28;20234;-56
2022/10/22 04:51:32;;;;;;;1.07;1.00;;;;;;;8.72;83.11;99765.16;5072680;28;20214;-57
2022/10/22 04:53:59;;;;;;;0.90;0.90;;;;;;;8.76;83.23;99764.09;5072188;28;20202;-57
2022/10/22 04:56:28;;;;;;;1.20;0.90;;;;;;;8.79;83.25;99761.38;5072303;28;20222;-62
2022/10/22 04:58:56;;;;;;;1.63;0.83;;;;;;;8.76;83.18;99774.31;5072817;28;20199;-62
2022/10/22 05:01:26;;;;;;;0.60;0.60;;;;;;;8.73;83.23;99776.19;5072195;28;20229;-62
2022/10/22 05:03:55;;;;;;;1.23;1.13;;;;;;;8.71;83.28;99776.25;5072502;28;20579;-57
2022/10/22 05:06:23;;;;;;;1.33;1.17;;;;;;;8.66;83.12;99770.59;5072081;28;20218;-62
2022/10/22 05:08:55;;;;;;;1.07;0.97;;;;;;;8.64;83.30;99764.75;5072081;28;20226;-57
2022/10/22 05:11:24;;;;;;;1.70;1.60;;;;;;;8.59;83.03;99752.25;5072040;28;20233;-62
2022/10/22 05:13:51;;;;;;;0.40;0.40;;;;;;;8.55;83.27;99755.88;5072198;28;20195;-61
2022/10/22 05:16:18;;;;;;;1.13;1.07;;;;;;;8.54;83.65;99753.41;5072393;28;20245;-57
2022/10/22 05:18:45;;;;;;;0.87;0.77;;;;;;;8.58;83.45;99752.31;5072172;28;20198;-57
2022/10/22 05:21:14;;;;;;;0.80;0.80;;;;;;;8.66;82.91;99755.28;5072211;28;20702;-57
2022/10/22 05:23:41;;;;;;;1.27;1.17;;;;;;;8.65;82.73;99755.38;5072192;28;20259;-57
2022/10/22 05:26:11;;;;;;;1.00;0.90;;;;;;;8.64;82.77;99749.47;5072122;28;20226;-62
2022/10/22 05:28:38;;;;;;;0.83;0.83;;;;;;;8.61;82.93;99759.84;5071983;28;20245;-57
2022/10/22 05:31:07;;;;;;;0.80;0.80;;;;;;;8.63;83.01;99752.91;5071798;28;20610;-57
2022/10/22 05:33:35;;;;;;;0.50;0.50;;;;;;;8.58;83.03;99750.63;5072239;28;20210;-56
2022/10/22 05:36:04;;;;;;;1.00;0.90;;;;;;;8.59;83.24;99753.97;5071493;28;20218;-62
2022/10/22 05:38:32;;;;;;;0.60;0.60;;;;;;;8.61;82.85;99744.53;5071730;28;20195;-57
2022/10/22 05:41:00;;;;;;;0.90;0.67;;;;;;;8.54;83.05;99753.41;5071005;28;20250;-56
2022/10/22 05:43:28;;;;;;;0.43;0.43;;;;;;;8.60;82.88;99758.16;5071666;28;20764;-57
2022/10/22 05:45:55;;;;;;;0.77;0.77;;;;;;;8.63;82.78;99755.44;5071562;28;20606;-62
2022/10/22 05:48:22;;;;;;;0.40;0.40;;;;;;;8.70;82.69;99751.69;5071443;28;20230;-62
2022/10/22 05:50:50;;;;;;;0.47;0.47;;;;;;;8.75;82.48;99756.53;5071360;28;20225;-56
2022/10/22 05:53:17;;;;;;;1.03;1.03;;;;;;;8.79;82.54;99756.28;5071429;28;20202;-56
2022/10/22 05:55:45;;;;;;;0.40;0.40;;;;;;;8.81;82.33;99757.03;5071451;28;20276;-62
2022/10/22 05:58:12;;;;;;;2.47;1.00;;;;;;;8.89;82.22;99753.22;5071448;28;20198;-62
2022/10/22 06:00:41;;;;;;;1.30;1.07;;;;;;;8.95;82.23;99756.25;5071256;28;20214;-57
2022/10/22 06:03:07;;;;;;;1.10;1.00;;;;;;;8.99;82.05;99754.38;5071233;28;20202;-61
2022/10/22 06:05:35;;;;;;;0.87;0.70;;;;;;;9.05;82.33;99751.50;5071340;28;20643;-56
2022/10/22 06:08:03;;;;;;;1.30;1.17;;;;;;;9.11;82.14;99748.59;5071028;28;20261;-57
2022/10/22 06:10:30;;;;;;;0.90;0.63;;;;;;;9.16;82.00;99740.66;5070794;28;20241;-62
2022/10/22 06:12:57;;;;;;;1.03;1.03;;;;;;;9.22;81.77;99756.47;5070998;28;20198;-57
2022/10/22 06:15:23;;;;;;;0.60;0.53;;;;;;;9.28;81.44;99756.13;5070746;28;20226;-62
2022/10/22 06:17:51;;;;;;;0.50;0.50;;;;;;;9.33;81.39;99767.81;5071026;28;20203;-56
2022/10/22 06:20:18;;;;;;;0.50;0.50;;;;;;;9.41;81.59;99766.47;5070991;28;20249;-62
2022/10/22 06:22:47;;;;;;;0.40;0.40;;;;;;;9.45;81.31;99772.22;5071102;28;20203;-56
2022/10/22 06:25:13;;;;;;;1.07;0.97;;;;;;;9.55;80.78;99783.56;5070704;28;20215;-63
2022/10/22 06:27:40;;;;;;;1.03;0.97;;;;;;;9.65;80.34;99789.78;5070715;28;20281;-62
2022/10/22 06:30:09;;;;;;;1.27;1.17;;;;;;;9.83;80.88;99789.63;5070856;28;20218;-62
2022/10/22 06:32:35;;;;;;;0.60;0.60;;;;;;;10.05;79.60;99781.53;5071148;28;20655;-62
2022/10/22 06:35:04;;;;;;;0.70;0.70;;;;;;;10.46;77.49;99770.59;5070426;28;20218;-62
2022/10/22 06:37:31;;;;;;;1.63;0.60;;;;;;;10.42;76.41;99780.22;5070506;28;20195;-57
2022/10/22 06:39:57;;;;;;;0.40;0.40;;;;;;;10.48;76.04;99779.84;5070383;28;20214;-62
2022/10/22 06:42:24;;;;;;;0.83;0.80;;;;;;;10.66;75.92;99777.88;5070357;28;20202;-56
2022/10/22 06:44:51;;;;;;;1.27;0.70;;;;;;;11.01;75.92;99778.25;5070404;28;20218;-57
2022/10/22 06:47:18;;;;;;;1.97;1.23;;;;;;;11.12;73.46;99787.00;5070396;28;20428;-57
2022/10/22 06:49:45;;;;;;;1.20;1.10;;;;;;;11.04;73.29;99793.41;5069901;28;20238;-57
2022/10/22 06:52:13;;;;;;;0.80;0.70;;;;;;;10.93;73.69;99785.56;5069904;28;20670;-57
2022/10/22 06:54:40;;;;;;;1.77;0.90;;;;;;;10.93;73.52;99780.47;5070165;28;20429;-57
2022/10/22 06:57:07;;;;;;;0.77;0.77;;;;;;;11.02;73.58;99787.53;5070047;28;20195;-62
2022/10/22 06:59:33;;;;;;;0.30;0.30;;;;;;;11.07;73.22;99788.09;5070406;28;20706;-57
2022/10/22 07:02:00;;;;;;;0.50;0.50;;;;;;;11.03;72.92;99781.53;5070154;28;20605;-57
2022/10/22 07:04:27;;;;;;;0.60;0.50;;;;;;;11.01;72.76;99785.09;5070072;28;20205;-62
2022/10/22 07:06:55;;;;;;;0.70;0.70;;;;;;;10.97;73.14;99786.22;5070080;28;20201;-60
2022/10/22 07:09:23;;;;;;;1.20;0.90;;;;;;;11.01;73.38;99778.25;5069994;28;20321;-57
2022/10/22 07:11:50;;;;;;;1.70;1.07;;;;;;;10.98;73.40;99778.44;5070340;28;20206;-57
2022/10/22 07:14:17;;;;;;;0.60;0.60;;;;;;;10.92;73.50;99783.13;5070138;28;20460;-57
2022/10/22 07:16:44;;;;;;;0.30;0.30;;;;;;;10.95;73.63;99770.13;5069796;28;20194;-62
2022/10/22 07:19:11;;;;;;;1.83;0.50;;;;;;;11.04;73.26;99777.22;5069555;28;20195;-62
2022/10/22 07:21:38;;;;;;;0.83;0.83;;;;;;;10.87;73.19;99770.59;5069973;28;20617;-62
2022/10/22 07:24:06;;;;;;;2.33;1.00;;;;;;;10.96;74.03;99770.03;5069917;28;20199;-57
2022/10/22 07:26:35;;;;;;;0.77;0.57;;;;;;;10.90;74.45;99777.28;5069757;28;20218;-57
2022/10/22 07:29:03;;;;;;;0.83;0.80;;;;;;;10.83;74.69;99774.28;5069750;28;20341;-57
2022/10/22 07:31:30;;;;;;;0.77;0.43;;;;;;;10.80;74.54;99769.38;5069764;28;20605;-62
2022/10/22 07:33:57;;;;;;;1.13;0.97;;;;;;;10.82;74.86;99765.78;5069965;28;20194;-56
2022/10/22 07:36:24;;;;;;;0.63;0.63;;;;;;;10.86;73.96;99766.41;5069690;28;20755;-62
2022/10/22 07:38:55;;;;;;;1.50;0.70;;;;;;;11.04;74.65;99762.69;5069585;28;20198;-62
2022/10/22 07:41:23;;;;;;;0.50;0.37;;;;;;;11.07;74.08;99759.13;5069558;28;20218;-56
2022/10/22 07:43:51;;;;;;;0.63;0.63;;;;;;;11.24;74.12;99755.50;5069541;28;20230;-56
2022/10/22 07:46:18;;;;;;;0.90;0.87;;;;;;;11.38;72.90;99752.06;5069560;28;20225;-62
2022/10/22 07:48:45;;;;;;;0.50;0.50;;;;;;;11.65;72.71;99757.09;5069604;28;20230;-62
2022/10/22 07:51:12;;;;;;;0.30;0.30;;;;;;;11.82;71.47;99759.38;5070028;28;20225;-56
2022/10/22 07:53:39;;;;;;;0.60;0.60;;;;;;;11.85;71.03;99754.06;5069571;28;20214;-62
2022/10/22 07:56:06;;;;;;;0.77;0.60;;;;;;;11.89;69.05;99750.38;5069526;28;20222;-57
2022/10/22 07:58:34;;;;;;;0.73;0.73;;;;;;;11.96;70.33;99748.22;5069940;28;20205;-57
2022/10/22 08:01:04;;;;;;;0.40;0.40;;;;;;;12.22;68.83;99751.59;5069632;28;20219;-57
2022/10/22 08:03:31;;;;;;;0.60;0.60;;;;;;;12.64;69.46;99762.34;5070997;28;20209;-57
2022/10/22 08:05:58;;;;;;;5.53;1.13;;;;;;;13.36;64.87;99764.94;5073672;28;20984;-57
2022/10/22 08:08:25;;;;;;;0.53;0.53;;;;;;;13.57;64.72;99759.97;5073721;28;20226;-61
2022/10/22 08:10:53;;;;;;;0.83;0.80;;;;;;;13.70;62.95;99765.88;5073245;28;20230;-57
2022/10/22 08:13:19;;;;;;;2.23;1.20;;;;;;;13.68;62.71;99765.16;5073435;28;20202;-63
2022/10/22 08:15:46;;;;;;;1.10;1.00;;;;;;;13.72;64.40;99763.97;5073225;28;20233;-57
2022/10/22 08:18:15;;;;;;;0.77;0.73;;;;;;;13.75;62.68;99771.47;5073156;28;20226;-63
2022/10/22 08:20:42;;;;;;;0.97;0.87;;;;;;;13.83;62.59;99773.47;5073034;28;20220;-58
2022/10/22 08:23:09;;;;;;;1.90;1.10;;;;;;;14.10;62.25;99764.59;5073285;28;20265;-63
2022/10/22 08:25:36;;;;;;;2.00;1.33;;;;;;;13.82;60.71;99767.50;5073315;28;20222;-63
2022/10/22 08:28:03;;;;;;;2.10;1.57;;;;;;;13.70;60.39;99763.28;5073296;28;20206;-63
2022/10/22 08:30:32;;;;;;;1.60;1.30;;;;;;;13.69;61.24;99756.50;5073018;28;20219;-57
2022/10/22 08:32:59;;;;;;;0.63;0.53;;;;;;;13.94;61.72;99754.69;5072910;28;20336;-57
2022/10/22 08:35:27;;;;;;;0.57;0.50;;;;;;;14.34;60.96;99761.91;5072519;28;20598;-63
2022/10/22 08:37:54;;;;;;;2.53;0.93;;;;;;;14.48;60.75;99748.78;5073021;28;20200;-63
2022/10/22 08:40:25;;;;;;;1.77;1.13;;;;;;;14.50;60.47;99736.63;5072904;28;20222;-57
2022/10/22 08:43:27;;;;;;;0.83;0.60;;;;;;;14.49;59.60;99740.16;5072770;28;20194;-63
2022/10/22 08:46:10;;;;;;;1.40;1.30;;;;;;;14.55;59.77;99734.56;5072917;28;20222;-63
2022/10/22 08:48:45;;;;;;;0.63;0.60;;;;;;;15.05;59.68;99736.63;5072925;28;20226;-57
2022/10/22 08:51:18;;;;;;;1.47;0.97;;;;;;;15.31;58.22;99731.94;5072610;28;20225;-63
2022/10/22 08:54:01;;;;;;;1.40;0.90;;;;;;;15.76;57.39;99732.50;5072459;28;20195;-62
2022/10/22 08:56:29;;;;;;;4.20;1.43;;;;;;;15.95;56.19;99726.63;5072588;28;20214;-57
2022/10/22 08:59:04;;;;;;;0.73;0.73;;;;;;;15.74;54.88;99712.97;5072761;28;20228;-57
2022/10/22 09:01:35;;;;;;;1.10;1.00;;;;;;;15.62;57.13;99713.00;5072255;28;20230;-62
2022/10/22 09:04:10;;;;;;;1.43;1.30;;;;;;;15.77;56.14;99717.88;5072352;28;20207;-56
2022/10/22 09:06:43;;;;;;;1.50;1.10;;;;;;;15.62;55.06;99714.78;5072362;28;20213;-57
2022/10/22 09:09:15;;;;;;;2.07;1.23;;;;;;;15.77;56.47;99717.88;5072064;28;20777;-57
2022/10/22 09:11:45;;;;;;;1.40;1.13;;;;;;;15.88;55.24;99715.16;5072589;28;20207;-63
2022/10/22 09:14:15;;;;;;;2.50;1.47;;;;;;;16.05;53.65;99716.34;5071183;28;20202;-63
2022/10/22 09:17:02;;;;;;;2.03;0.87;;;;;;;16.17;54.73;99714.47;5071274;28;20206;-63
2022/10/22 09:19:35;;;;;;;2.03;1.10;;;;;;;16.28;54.31;99716.94;5071770;28;20203;-62
2022/10/22 09:22:13;;;;;;;1.90;1.33;;;;;;;16.38;53.70;99717.81;5070093;28;20478;-57
2022/10/22 09:24:45;;;;;;;2.70;1.73;;;;;;;16.27;53.54;99723.88;5072001;28;20226;-57
2022/10/22 09:27:14;;;;;;;2.13;1.80;;;;;;;16.49;54.14;99725.44;5071734;28;20198;-63
2022/10/22 09:29:41;;;;;;;1.33;1.00;;;;;;;16.41;53.85;99727.84;5071869;28;20248;-63
2022/10/22 09:32:08;;;;;;;2.07;1.43;;;;;;;16.37;53.88;99726.47;5071730;28;20203;-62
2022/10/22 09:34:35;;;;;;;1.63;1.23;;;;;;;16.63;52.90;99731.97;5071763;28;20246;-62
2022/10/22 09:37:06;;;;;;;2.60;1.30;;;;;;;16.72;53.00;99725.19;5071302;28;20210;-56
2022/10/22 09:39:38;;;;;;;1.17;1.00;;;;;;;17.04;52.14;99724.94;5071747;28;20231;-56
2022/10/22 09:42:05;;;;;;;3.20;1.57;;;;;;;17.24;52.95;99728.34;5072050;28;20461;-60
2022/10/22 09:44:33;;;;;;;2.23;1.40;;;;;;;17.45;51.60;99727.34;5071787;28;20223;-56
2022/10/22 09:47:00;;;;;;;1.70;1.30;;;;;;;17.55;50.52;99715.22;5071763;28;20596;-57
2022/10/22 09:49:33;;;;;;;2.70;1.40;;;;;;;17.98;50.96;99706.13;5071430;28;20237;-62
2022/10/22 09:52:01;;;;;;;1.60;1.37;;;;;;;18.46;48.71;99702.44;5070078;28;20208;-62
2022/10/22 09:54:41;;;;;;;4.87;2.60;;;;;;;18.95;48.30;99708.94;5070754;28;20218;-62
2022/10/22 09:57:16;;;;;;;3.80;2.03;;;;;;;18.92;47.51;99717.00;5071456;28;20684;-62
2022/10/22 09:59:47;;;;;;;3.33;1.80;;;;;;;18.87;47.68;99724.41;5071361;28;20316;-62
2022/10/22 10:02:16;;;;;;;5.33;2.23;;;;;;;18.38;47.70;99715.31;5070822;28;20209;-63
2022/10/22 10:04:50;;;;;;;3.53;2.10;;;;;;;18.00;48.48;99707.59;5070962;28;20230;-62
2022/10/22 10:07:19;;;;;;;3.23;2.20;;;;;;;18.00;48.18;99706.78;5071421;28;20185;-57
2022/10/22 10:09:48;;;;;;;3.27;2.23;;;;;;;17.81;50.28;99698.16;5070920;28;20233;-62
2022/10/22 10:12:30;;;;;;;4.03;2.50;;;;;;;18.08;48.33;99691.38;5070989;28;20203;-62
2022/10/22 10:15:07;;;;;;;2.37;1.77;;;;;;;18.17;48.23;99687.91;5071060;28;20225;-57
2022/10/22 10:17:40;;;;;;;2.80;1.73;;;;;;;18.33;48.00;99703.63;5071144;28;20206;-57
2022/10/22 10:20:26;;;;;;;3.40;1.77;;;;;;;18.26;48.73;99712.91;5070901;28;20244;-57
2022/10/22 10:23:01;;;;;;;1.33;1.20;;;;;;;18.46;48.17;99712.81;5070291;28;20201;-59
2022/10/22 10:25:41;;;;;;;2.63;1.73;;;;;;;18.61;48.76;99705.34;5070831;28;20226;-63
2022/10/22 10:28:28;;;;;;;10.47;5.07;;;;;;;18.96;48.70;99694.19;5070889;28;20227;-57
2022/10/22 10:31:03;;;;;;;14.30;5.73;;;;;;;18.87;48.79;99689.91;5070755;28;20240;-62
2022/10/22 10:33:41;;;;;;;5.43;2.40;;;;;;;19.04;47.94;99685.69;5070630;28;20202;-57
2022/10/22 10:36:17;;;;;;;5.80;2.57;;;;;;;19.01;49.64;99666.06;5070033;28;20218;-57
2022/10/22 10:38:57;;;;;;;10.00;4.13;;;;;;;19.18;48.04;99665.19;5070801;28;20202;-57
2022/10/22 10:41:36;;;;;;;31.07;8.43;;;;;;;19.03;48.57;99663.31;5070285;28;20648;-57
2022/10/22 10:44:19;;;;;;;7.47;3.27;;;;;;;18.75;48.12;99653.88;5070500;28;20594;-63
2022/10/22 10:46:53;;;;;;;3.03;2.27;;;;;;;18.67;48.50;99643.41;5070542;28;20191;-63
2022/10/22 10:49:24;;;;;;;2.87;1.80;;;;;;;18.72;49.61;99635.19;5069433;28;20226;-63
2022/10/22 10:51:58;;;;;;;3.97;2.53;;;;;;;18.78;48.80;99629.44;5069795;28;20202;-64
2022/10/22 10:54:41;;;;;;;3.97;2.40;;;;;;;18.95;47.66;99630.38;5069992;28;20233;-57
2022/10/22 10:57:22;;;;;;;4.27;2.17;;;;;;;19.01;47.93;99629.78;5070163;28;20200;-64
2022/10/22 11:00:02;;;;;;;7.53;4.33;;;;;;;18.64;48.30;99625.56;5070234;28;20237;-58
2022/10/22 11:03:11;;;;;;;2.70;1.87;;;;;;;18.59;48.44;99604.50;5069846;28;20201;-64
2022/10/22 11:05:40;;;;;;;17.00;6.27;;;;;;;18.70;49.10;99604.28;5070130;28;20229;-58
2022/10/22 11:08:14;;;;;;;3.97;2.30;;;;;;;18.70;47.97;99606.88;5069832;28;20213;-63
2022/10/22 11:10:46;;;;;;;25.40;9.50;;;;;;;18.67;48.63;99603.75;5069901;28;20250;-58
2022/10/22 11:13:23;;;;;;;7.93;3.10;;;;;;;18.68;48.79;99608.78;5070010;28;20652;-57
2022/10/22 11:15:55;;;;;;;3.63;2.27;;;;;;;18.50;48.57;99595.00;5068728;28;20300;-63
2022/10/22 11:18:28;;;;;;;4.00;2.37;;;;;;;18.55;50.48;99588.44;5069911;28;20676;-64
2022/10/22 11:21:10;;;;;;;1.90;1.57;;;;;;;18.72;49.18;99594.56;5069921;28;20234;-64
2022/10/22 11:23:44;;;;;;;2.20;1.67;;;;;;;18.29;49.34;99592.75;5069852;28;20205;-64
2022/10/22 11:26:19;;;;;;;2.87;1.37;;;;;;;18.44;49.20;99588.69;5069644;28;20326;-64
2022/10/22 11:28:52;;;;;;;2.70;1.83;;;;;;;18.44;49.20;99588.69;5069426;28;20186;-63
2022/10/22 11:31:19;;;;;;;1.97;1.53;;;;;;;18.64;49.28;99586.72;5069392;28;20225;-64
2022/10/22 11:33:52;;;;;;;2.60;1.40;;;;;;;18.86;50.11;99574.28;5069632;28;20210;-63
2022/10/22 11:36:22;;;;;;;2.47;1.57;;;;;;;18.73;49.10;99580.69;5069372;28;20707;-64
2022/10/22 11:38:49;;;;;;;2.90;1.90;;;;;;;18.70;49.21;99578.38;5068501;28;20232;-58
2022/10/22 11:41:18;;;;;;;2.83;1.50;;;;;;;18.60;49.36;99580.22;5068785;28;20215;-64
2022/10/22 11:43:58;;;;;;;1.90;1.30;;;;;;;18.31;49.12;99564.94;5069445;28;20208;-58
2022/10/22 11:46:35;;;;;;;2.23;1.40;;;;;;;17.97;50.02;99560.41;5069523;28;20222;-65
2022/10/22 11:49:06;;;;;;;3.50;1.20;;;;;;;18.03;50.25;99551.25;5069496;28;20205;-58
2022/10/22 11:51:35;;;;;;;4.37;1.40;;;;;;;18.17;50.19;99555.91;5069104;28;20233;-59
2022/10/22 11:54:22;;;;;;;2.87;1.97;;;;;;;18.39;50.63;99551.25;5069273;28;20657;-60